createdAt,value
2023-04-24T00:01:08.852Z,7.60
2023-04-24T00:06:12.441Z,7.57
2023-04-24T00:11:16.071Z,7.57
2023-04-24T00:16:21.204Z,7.57
2023-04-24T00:21:26.921Z,7.61
2023-04-24T00:26:30.452Z,7.59
2023-04-24T00:31:36.041Z,7.54
2023-04-24T00:36:39.783Z,7.43
2023-04-24T00:41:43.291Z,7.25
2023-04-24T00:46:52.899Z,7.20
2023-04-24T00:51:56.466Z,7.19
2023-04-24T00:56:59.987Z,7.21
2023-04-24T01:02:04.855Z,7.22
2023-04-24T01:07:11.796Z,7.25
2023-04-24T01:12:15.362Z,7.15
2023-04-24T01:17:20.366Z,7.18
2023-04-24T01:22:25.460Z,7.20
2023-04-24T01:27:29.200Z,7.12
2023-04-24T01:32:33.380Z,7.09
2023-04-24T01:37:39.405Z,7.09
2023-04-24T01:42:44.136Z,7.08
2023-04-24T01:47:48.389Z,7.07
2023-04-24T01:52:53.298Z,6.92
2023-04-24T01:57:57.690Z,6.98
2023-04-24T02:03:03.087Z,6.91
2023-04-24T02:08:08.152Z,7.00
2023-04-24T02:13:11.343Z,7.00
2023-04-24T02:18:14.829Z,6.91
2023-04-24T02:23:19.714Z,6.98
2023-04-24T02:28:22.960Z,7.11
2023-04-24T02:33:26.405Z,7.14
2023-04-24T02:38:31.470Z,7.21
2023-04-24T02:43:35.206Z,7.35
2023-04-24T02:48:38.693Z,7.41
2023-04-24T02:53:43.662Z,7.55
2023-04-24T02:58:46.899Z,7.65
2023-04-24T03:03:50.855Z,7.64
2023-04-24T03:08:56.018Z,7.80
2023-04-24T03:13:59.512Z,8.04
2023-04-24T03:19:03.669Z,8.26
2023-04-24T03:24:08.650Z,8.54
2023-04-24T03:29:12.229Z,8.66
2023-04-24T03:34:15.719Z,9.06
2023-04-24T03:39:20.779Z,9.42
2023-04-24T03:44:24.309Z,9.81
2023-04-24T03:49:27.860Z,12.05
2023-04-24T03:54:32.726Z,16.10
2023-04-24T03:59:35.936Z,18.26
2023-04-24T04:04:39.653Z,19.71
2023-04-24T04:09:45.010Z,22.13
2023-04-24T04:14:48.662Z,23.44
2023-04-24T04:19:52.225Z,24.74
2023-04-24T04:24:57.654Z,25.62
2023-04-24T04:30:02.610Z,26.62
2023-04-24T04:35:08.619Z,28.50
2023-04-24T04:40:13.839Z,29.67
2023-04-24T04:45:17.912Z,29.70
2023-04-24T04:50:21.990Z,31.07
2023-04-24T04:55:27.020Z,31.56
2023-04-24T05:00:36.181Z,32.10
2023-04-24T05:05:41.690Z,33.02
2023-04-24T05:10:47.319Z,33.03
2023-04-24T05:15:51.050Z,33.91
2023-04-24T05:20:54.570Z,34.46
2023-04-24T05:25:59.671Z,35.19
2023-04-24T05:31:03.607Z,35.66
2023-04-24T05:36:08.864Z,36.25
2023-04-24T05:41:13.723Z,35.97
2023-04-24T05:46:17.269Z,36.17
2023-04-24T05:51:20.814Z,37.73
2023-04-24T05:56:26.651Z,39.37
2023-04-24T06:01:30.813Z,38.56
2023-04-24T06:06:34.334Z,37.53
2023-04-24T06:11:39.341Z,38.89
2023-04-24T06:16:44.801Z,39.38
2023-04-24T06:21:48.475Z,39.61
2023-04-24T06:26:53.355Z,39.66
2023-04-24T06:31:56.843Z,40.53
2023-04-24T06:37:00.610Z,41.70
2023-04-24T06:42:05.712Z,43.69
2023-04-24T06:47:09.902Z,42.62
2023-04-24T06:52:13.630Z,43.16
2023-04-24T06:57:18.696Z,43.00
2023-04-24T07:02:22.438Z,42.46
2023-04-24T07:07:26.141Z,40.25
2023-04-24T07:12:31.132Z,41.04
2023-04-24T07:17:34.664Z,38.97
2023-04-24T07:22:38.156Z,40.67
2023-04-24T07:27:43.092Z,38.96
2023-04-24T07:32:46.715Z,36.98
2023-04-24T07:37:50.659Z,36.09
2023-04-24T07:42:55.558Z,35.65
2023-04-24T07:47:59.252Z,35.56
2023-04-24T07:53:02.932Z,34.25
2023-04-24T07:58:07.858Z,33.54
2023-04-24T08:03:11.714Z,34.88
2023-04-24T08:08:15.916Z,35.46
2023-04-24T08:13:20.978Z,34.81
2023-04-24T08:18:24.901Z,34.55
2023-04-24T08:23:29.996Z,31.41
2023-04-24T08:28:34.914Z,29.89
2023-04-24T08:33:38.405Z,28.90
2023-04-24T08:38:43.217Z,27.49
2023-04-24T08:43:49.585Z,27.86
2023-04-24T08:48:54.142Z,28.44
2023-04-24T08:53:58.763Z,27.58
2023-04-24T08:59:04.425Z,27.80
2023-04-24T09:04:10.126Z,27.15
2023-04-24T09:09:13.945Z,26.57
2023-04-24T09:14:19.067Z,26.27
2023-04-24T09:19:23.583Z,25.77
2023-04-24T09:24:27.127Z,25.41
2023-04-24T09:29:33.988Z,25.79
2023-04-24T09:34:37.528Z,26.23
2023-04-24T09:39:41.366Z,25.36
2023-04-24T09:44:46.725Z,25.64
2023-04-24T09:49:50.340Z,25.37
2023-04-24T09:54:56.101Z,25.64
2023-04-24T10:00:01.101Z,25.04
2023-04-24T10:05:05.188Z,24.81
2023-04-24T10:10:10.224Z,25.11
2023-04-24T10:15:16.677Z,25.20
2023-04-24T10:20:24.129Z,24.87
2023-04-24T10:25:29.579Z,24.98
2023-04-24T10:30:37.258Z,24.78
2023-04-24T10:35:46.636Z,24.73
2023-04-24T10:40:50.327Z,24.56
2023-04-24T10:46:05.628Z,24.08
2023-04-24T10:51:15.193Z,24.12
2023-04-24T10:56:19.397Z,23.38
2023-04-24T11:01:28.748Z,23.76
2023-04-24T11:06:33.919Z,23.81
2023-04-24T11:11:41.181Z,24.14
2023-04-24T11:16:48.049Z,24.48
2023-04-24T11:21:57.699Z,24.17
2023-04-24T11:27:07.855Z,24.30
2023-04-24T11:32:20.959Z,23.83
2023-04-24T11:37:26.215Z,23.22
2023-04-24T11:42:30.958Z,22.98
2023-04-24T11:47:35.905Z,22.96
2023-04-24T11:52:41.176Z,23.23
2023-04-24T11:57:45.878Z,22.98
2023-04-24T12:02:51.681Z,23.02
2023-04-24T12:07:56.301Z,23.38
2023-04-24T12:13:01.594Z,22.74
2023-04-24T12:18:06.714Z,22.57
2023-04-24T12:23:10.362Z,22.57
2023-04-24T12:28:15.224Z,22.81
2023-04-24T12:33:21.919Z,22.87
2023-04-24T12:38:27.691Z,22.52
2023-04-24T12:43:31.284Z,22.62
2023-04-24T12:48:36.272Z,22.12
2023-04-24T12:53:40.114Z,21.63
2023-04-24T12:58:43.839Z,21.42
2023-04-24T13:03:48.922Z,21.44
2023-04-24T13:08:52.735Z,21.24
2023-04-24T13:13:56.941Z,21.35
2023-04-24T13:19:01.784Z,21.03
2023-04-24T13:24:06.088Z,20.88
2023-04-24T13:29:09.974Z,21.12
2023-04-24T13:34:15.037Z,21.30
2023-04-24T13:39:18.592Z,21.37
2023-04-24T13:44:23.483Z,21.24
2023-04-24T13:49:29.354Z,21.07
2023-04-24T13:54:32.894Z,20.78
2023-04-24T13:59:36.451Z,20.75
2023-04-24T14:04:41.832Z,20.85
2023-04-24T14:09:45.677Z,20.98
2023-04-24T14:14:50.368Z,21.15
2023-04-24T14:19:57.415Z,21.23
2023-04-24T14:25:01.068Z,21.38
2023-04-24T14:30:05.587Z,21.40
2023-04-24T14:35:11.660Z,21.38
2023-04-24T14:40:29.797Z,21.32
2023-04-24T14:45:39.642Z,21.24
2023-04-24T14:50:44.722Z,20.92
2023-04-24T14:55:51.352Z,20.77
2023-04-24T15:00:55.639Z,20.72
2023-04-24T15:06:00.721Z,20.66
2023-04-24T15:11:04.345Z,20.56
2023-04-24T15:16:08.419Z,20.34
2023-04-24T15:21:14.328Z,20.34
2023-04-24T15:26:17.866Z,20.30
2023-04-24T15:31:23.435Z,20.20
2023-04-24T15:36:28.759Z,20.07
2023-04-24T15:41:32.788Z,20.00
2023-04-24T15:46:37.363Z,20.03
2023-04-24T15:51:42.484Z,19.96
2023-04-24T15:56:46.074Z,19.86
2023-04-24T16:01:50.016Z,19.77
2023-04-24T16:06:55.250Z,19.62
2023-04-24T16:11:58.820Z,19.49
2023-04-24T16:17:05.756Z,19.20
2023-04-24T16:22:10.650Z,19.07
2023-04-24T16:27:14.112Z,18.97
2023-04-24T16:32:17.667Z,18.81
2023-04-24T16:37:22.717Z,18.63
2023-04-24T16:42:26.586Z,18.39
2023-04-24T16:47:30.265Z,18.19
2023-04-24T16:52:35.321Z,18.05
2023-04-24T16:57:38.969Z,17.88
2023-04-24T17:02:42.562Z,17.68
2023-04-24T17:07:47.574Z,17.51
2023-04-24T17:12:51.226Z,17.32
2023-04-24T17:17:55.125Z,17.00
2023-04-24T17:23:00.099Z,17.00
2023-04-24T17:28:03.849Z,16.90
2023-04-24T17:33:07.431Z,16.76
2023-04-24T17:38:12.341Z,16.55
2023-04-24T17:43:18.274Z,16.28
2023-04-24T17:48:22.493Z,16.26
2023-04-24T17:53:27.692Z,16.23
2023-04-24T17:58:31.801Z,16.16
2023-04-24T18:03:35.413Z,16.07
2023-04-24T18:08:40.517Z,15.90
2023-04-24T18:13:44.160Z,15.76
2023-04-24T18:18:47.926Z,15.64
2023-04-24T18:23:53.100Z,15.48
2023-04-24T18:28:56.681Z,15.50
2023-04-24T18:34:00.401Z,15.50
2023-04-24T18:39:05.484Z,15.53
2023-04-24T18:44:09.347Z,15.52
2023-04-24T18:49:12.819Z,15.56
2023-04-24T18:54:17.875Z,15.49
2023-04-24T18:59:21.555Z,15.45
2023-04-24T19:04:25.232Z,15.48
2023-04-24T19:09:30.141Z,15.49
2023-04-24T19:14:33.693Z,15.46
2023-04-24T19:19:37.385Z,15.54
2023-04-24T19:24:42.269Z,15.64
2023-04-24T19:29:46.174Z,15.71
2023-04-24T19:34:49.778Z,15.78
2023-04-24T19:39:54.788Z,15.88
2023-04-24T19:44:58.236Z,15.92
2023-04-24T19:50:01.725Z,15.91
2023-04-24T19:55:09.518Z,16.02
2023-04-24T20:00:14.231Z,16.07
2023-04-24T20:05:17.992Z,16.04
2023-04-24T20:10:23.064Z,15.93
2023-04-24T20:15:26.699Z,15.83
2023-04-24T20:20:30.252Z,15.81
2023-04-24T20:25:36.340Z,15.83
2023-04-24T20:30:39.911Z,15.70
2023-04-24T20:35:43.398Z,15.67
2023-04-24T20:45:55.940Z,15.48
2023-04-24T20:50:59.437Z,15.46
2023-04-24T20:56:04.874Z,15.41
2023-04-24T21:01:08.708Z,15.34
2023-04-24T21:06:12.232Z,15.38
2023-04-24T21:11:17.116Z,15.39
2023-04-24T21:16:21.059Z,15.37
2023-04-24T21:21:25.370Z,15.51
2023-04-24T21:26:30.391Z,15.52
2023-04-24T21:31:33.981Z,15.56
2023-04-24T21:36:37.513Z,15.52
2023-04-24T21:41:42.866Z,15.49
2023-04-24T21:46:46.411Z,15.32
2023-04-24T21:51:49.957Z,15.05
2023-04-24T21:56:54.888Z,15.06
2023-04-24T22:01:58.529Z,15.06
2023-04-24T22:07:02.578Z,15.05
2023-04-24T22:12:08.007Z,15.01
2023-04-24T22:17:11.451Z,15.02
2023-04-24T22:22:15.174Z,15.01
2023-04-24T22:27:20.198Z,14.94
2023-04-24T22:32:23.882Z,14.80
2023-04-24T22:37:27.643Z,14.58
2023-04-24T22:42:32.626Z,14.38
2023-04-24T22:47:36.171Z,14.18
2023-04-24T22:52:41.219Z,14.05
2023-04-24T22:57:46.179Z,13.95
2023-04-24T23:02:49.858Z,13.71
2023-04-24T23:07:53.435Z,13.51
2023-04-24T23:12:58.499Z,13.36
2023-04-24T23:18:02.148Z,13.19
2023-04-24T23:23:05.875Z,13.13
2023-04-24T23:28:10.858Z,13.06
2023-04-24T23:33:15.680Z,12.97
2023-04-24T23:38:19.227Z,12.91
2023-04-24T23:43:24.269Z,12.92
2023-04-24T23:48:27.932Z,12.88
2023-04-24T23:53:31.604Z,12.88
2023-04-24T23:58:36.969Z,12.87
